Time;durP1;ratioP1;P1;durP2;ratioP2;P2;SDS_P1;SDS_P2;PMS_P1;PMS_P2;Temp;Humidity;BMP_temperature;BMP_pressure;BME280_temperature;BME280_humidity;BME280_pressure;Samples;Min_cycle;Max_cycle;Signal;HPM_P1;HPM_P2
2023/06/26 00:02:10;;;;;;;7.03;1.90;;;;;;;;;;5008695;28;20026;-69
2023/06/26 00:04:37;;;;;;;4.90;2.00;;;;;;;;;;4999236;28;20819;-69
2023/06/26 00:07:03;;;;;;;5.38;2.28;;;;;;;;;;5013053;28;20076;-69
2023/06/26 00:09:28;;;;;;;12.68;2.38;;;;;;;;;;5006487;28;20141;-69
2023/06/26 00:11:54;;;;;;;7.50;2.33;;;;;;;;;;5006812;28;20526;-69
2023/06/26 00:14:20;;;;;;;5.65;2.08;;;;;;;;;;5012552;28;20550;-69
2023/06/26 00:16:46;;;;;;;9.48;2.50;;;;;;;;;;5009722;28;20033;-69
2023/06/26 00:19:11;;;;;;;7.85;2.38;;;;;;;;;;5012926;28;20030;-69
2023/06/26 00:21:37;;;;;;;7.00;2.13;;;;;;;;;;5013031;28;20073;-69
2023/06/26 00:24:02;;;;;;;12.10;2.22;;;;;;;;;;5012615;28;20030;-69
2023/06/26 00:26:28;;;;;;;11.30;2.45;;;;;;;;;;5010932;28;20049;-69
2023/06/26 00:28:53;;;;;;;12.00;2.40;;;;;;;;;;5012504;28;20058;-69
2023/06/26 00:31:18;;;;;;;10.02;2.58;;;;;;;;;;5013067;28;20378;-69
2023/06/26 00:33:44;;;;;;;12.38;2.33;;;;;;;;;;5007796;28;20372;-69
2023/06/26 00:36:09;;;;;;;11.07;2.30;;;;;;;;;;5012963;28;20065;-69
2023/06/26 00:38:35;;;;;;;9.80;2.75;;;;;;;;;;5012765;28;20120;-69
2023/06/26 00:41:00;;;;;;;6.45;1.95;;;;;;;;;;5013180;28;20105;-69
2023/06/26 00:43:25;;;;;;;7.15;1.90;;;;;;;;;;5012349;28;20168;-69
2023/06/26 00:45:51;;;;;;;9.98;2.10;;;;;;;;;;5012845;28;20038;-69
2023/06/26 00:48:17;;;;;;;5.78;2.10;;;;;;;;;;5008933;28;20045;-69
2023/06/26 00:50:43;;;;;;;5.32;2.10;;;;;;;;;;5011578;28;20052;-69
2023/06/26 00:53:09;;;;;;;9.50;2.40;;;;;;;;;;5011286;28;20149;-69
2023/06/26 00:55:35;;;;;;;13.52;2.80;;;;;;;;;;5011599;28;20038;-69
2023/06/26 00:58:00;;;;;;;12.80;2.97;;;;;;;;;;4986291;28;20050;-69
2023/06/26 01:00:25;;;;;;;8.93;2.85;;;;;;;;;;5012586;28;20108;-69
2023/06/26 01:02:51;;;;;;;5.28;2.13;;;;;;;;;;5016015;28;20065;-69
2023/06/26 01:05:20;;;;;;;11.88;2.40;;;;;;;;;;5015653;28;20050;-70
2023/06/26 01:07:48;;;;;;;10.73;2.55;;;;;;;;;;5041346;28;20103;-69
2023/06/26 01:10:14;;;;;;;7.82;2.28;;;;;;;;;;4998694;28;20084;-69
2023/06/26 01:12:39;;;;;;;6.57;2.28;;;;;;;;;;5016076;28;20477;-69
2023/06/26 01:15:05;;;;;;;5.97;2.50;;;;;;;;;;5016013;28;20030;-69
2023/06/26 01:17:31;;;;;;;8.45;2.30;;;;;;;;;;5015573;28;20118;-69
2023/06/26 01:20:00;;;;;;;8.85;2.30;;;;;;;;;;5014675;28;20375;-69
2023/06/26 01:22:29;;;;;;;9.20;2.20;;;;;;;;;;5010788;28;20036;-69
2023/06/26 01:25:08;;;;;;;10.02;2.58;;;;;;;;;;5015723;28;20041;-69
2023/06/26 01:27:34;;;;;;;8.45;2.22;;;;;;;;;;5014330;28;20034;-69
2023/06/26 01:30:03;;;;;;;11.90;2.05;;;;;;;;;;5015562;28;20037;-69
2023/06/26 01:32:30;;;;;;;13.77;2.28;;;;;;;;;;5014652;28;20126;-69
2023/06/26 01:34:56;;;;;;;7.10;2.17;;;;;;;;;;5013860;28;20038;-69
2023/06/26 01:37:21;;;;;;;5.53;1.77;;;;;;;;;;5014127;28;20029;-69
2023/06/26 01:39:47;;;;;;;7.13;1.92;;;;;;;;;;5015573;28;20048;-69
2023/06/26 01:42:12;;;;;;;6.20;2.28;;;;;;;;;;5015185;28;20025;-69
2023/06/26 01:44:44;;;;;;;4.63;2.00;;;;;;;;;;5015577;28;20036;-69
2023/06/26 01:47:14;;;;;;;14.82;2.35;;;;;;;;;;5009535;28;20038;-70
2023/06/26 01:49:57;;;;;;;8.00;2.00;;;;;;;;;;5014231;28;20120;-69
2023/06/26 01:52:29;;;;;;;13.65;2.47;;;;;;;;;;5012821;28;20576;-69
2023/06/26 01:55:22;;;;;;;6.22;2.08;;;;;;;;;;5013622;28;20080;-69
2023/06/26 01:57:48;;;;;;;11.27;2.40;;;;;;;;;;5014597;28;20050;-69
2023/06/26 02:00:18;;;;;;;7.72;3.22;;;;;;;;;;5013701;28;20041;-69
2023/06/26 02:02:44;;;;;;;8.63;2.05;;;;;;;;;;5013447;28;20096;-69
2023/06/26 02:05:09;;;;;;;7.78;2.22;;;;;;;;;;5013402;28;20100;-69
2023/06/26 02:07:34;;;;;;;6.72;2.20;;;;;;;;;;5014823;28;20129;-69
2023/06/26 02:10:00;;;;;;;4.90;2.22;;;;;;;;;;5007881;28;20074;-69
2023/06/26 02:12:25;;;;;;;4.97;1.80;;;;;;;;;;5011140;28;20085;-69
2023/06/26 02:14:51;;;;;;;9.85;2.40;;;;;;;;;;5014782;28;20049;-69
2023/06/26 02:17:16;;;;;;;9.73;2.30;;;;;;;;;;5014612;28;20046;-69
2023/06/26 02:19:47;;;;;;;8.05;2.53;;;;;;;;;;5013658;28;20041;-69
2023/06/26 02:22:16;;;;;;;6.47;2.53;;;;;;;;;;5014480;28;20121;-69
2023/06/26 02:24:42;;;;;;;11.15;2.20;;;;;;;;;;5009082;28;20069;-69
2023/06/26 02:27:07;;;;;;;9.13;2.88;;;;;;;;;;5012745;28;20521;-69
2023/06/26 02:29:32;;;;;;;5.45;2.15;;;;;;;;;;5014331;28;20042;-69
2023/06/26 02:31:58;;;;;;;3.72;2.03;;;;;;;;;;5014736;28;20424;-69
2023/06/26 02:34:23;;;;;;;15.75;2.50;;;;;;;;;;5009648;28;20553;-69
2023/06/26 02:36:49;;;;;;;4.72;2.33;;;;;;;;;;5014531;28;20908;-69
2023/06/26 02:39:14;;;;;;;7.47;2.25;;;;;;;;;;5012691;28;20487;-69
2023/06/26 02:41:40;;;;;;;10.35;2.50;;;;;;;;;;5014253;28;20049;-69
2023/06/26 02:44:06;;;;;;;8.73;2.33;;;;;;;;;;5010755;28;20394;-69
2023/06/26 02:46:31;;;;;;;9.38;2.17;;;;;;;;;;5014206;28;20394;-69
2023/06/26 02:48:57;;;;;;;11.82;2.20;;;;;;;;;;5014061;28;20052;-69
2023/06/26 02:51:22;;;;;;;8.50;2.42;;;;;;;;;;5011924;28;20093;-68
2023/06/26 02:53:47;;;;;;;11.05;1.92;;;;;;;;;;5013362;28;20038;-69
2023/06/26 02:56:12;;;;;;;14.52;2.63;;;;;;;;;;5014050;28;20501;-69
2023/06/26 02:58:38;;;;;;;9.05;2.35;;;;;;;;;;5013372;28;20560;-69
2023/06/26 03:01:03;;;;;;;6.55;2.67;;;;;;;;;;5014141;28;20042;-69
2023/06/26 03:03:28;;;;;;;8.35;1.98;;;;;;;;;;4996129;28;20049;-69
2023/06/26 03:05:54;;;;;;;7.07;1.98;;;;;;;;;;5014112;28;20087;-69
2023/06/26 03:08:19;;;;;;;5.43;2.35;;;;;;;;;;5013654;28;20543;-69
2023/06/26 03:10:44;;;;;;;7.70;2.30;;;;;;;;;;5013858;28;20060;-69
2023/06/26 03:13:10;;;;;;;12.23;2.33;;;;;;;;;;5013048;28;20374;-69
2023/06/26 03:15:35;;;;;;;9.25;2.17;;;;;;;;;;5013749;28;20042;-69
2023/06/26 03:18:01;;;;;;;7.95;2.08;;;;;;;;;;5007447;28;20038;-69
2023/06/26 03:20:26;;;;;;;9.73;2.22;;;;;;;;;;5045475;28;20034;-69
2023/06/26 03:22:52;;;;;;;6.70;2.20;;;;;;;;;;5012145;28;20119;-69
2023/06/26 03:25:17;;;;;;;8.70;2.78;;;;;;;;;;4999096;28;20389;-69
2023/06/26 03:27:42;;;;;;;9.48;2.30;;;;;;;;;;5013517;28;20088;-69
2023/06/26 03:30:08;;;;;;;6.22;2.13;;;;;;;;;;5006750;28;20034;-69
2023/06/26 03:32:34;;;;;;;8.35;2.90;;;;;;;;;;5007292;28;20421;-69
2023/06/26 03:35:01;;;;;;;7.65;2.35;;;;;;;;;;5013594;28;20033;-69
2023/06/26 03:37:26;;;;;;;7.57;2.50;;;;;;;;;;5013603;28;20073;-68
2023/06/26 03:39:52;;;;;;;9.15;2.40;;;;;;;;;;5013144;28;20521;-69
2023/06/26 03:42:17;;;;;;;8.75;2.17;;;;;;;;;;5011519;28;20041;-69
2023/06/26 03:44:42;;;;;;;10.95;2.40;;;;;;;;;;5013140;28;20061;-69
2023/06/26 03:47:08;;;;;;;5.97;2.38;;;;;;;;;;5013262;28;20080;-69
2023/06/26 03:49:33;;;;;;;7.70;2.35;;;;;;;;;;5013382;28;20033;-69
2023/06/26 03:51:58;;;;;;;9.25;2.50;;;;;;;;;;5013031;28;20033;-68
2023/06/26 03:54:24;;;;;;;4.78;2.15;;;;;;;;;;5007773;28;20482;-69
2023/06/26 03:56:49;;;;;;;11.82;2.75;;;;;;;;;;5013378;28;20025;-69
2023/06/26 03:59:14;;;;;;;13.77;2.80;;;;;;;;;;5012942;28;20072;-69
2023/06/26 04:01:40;;;;;;;6.43;2.22;;;;;;;;;;5011734;28;20394;-69
2023/06/26 04:04:05;;;;;;;7.65;2.70;;;;;;;;;;5011784;28;20171;-69
2023/06/26 04:06:33;;;;;;;7.40;2.38;;;;;;;;;;5012280;28;20046;-69
2023/06/26 04:08:59;;;;;;;5.68;1.92;;;;;;;;;;5011450;28;20041;-69
2023/06/26 04:11:25;;;;;;;9.93;2.50;;;;;;;;;;5009337;28;20030;-69
2023/06/26 04:13:50;;;;;;;5.22;1.73;;;;;;;;;;5005532;28;20038;-69
2023/06/26 04:16:15;;;;;;;8.93;2.10;;;;;;;;;;5013177;28;20084;-69
2023/06/26 04:18:41;;;;;;;5.18;1.80;;;;;;;;;;5012640;28;20042;-69
2023/06/26 04:21:14;;;;;;;7.60;2.22;;;;;;;;;;5009180;28;20062;-68
2023/06/26 04:23:40;;;;;;;5.70;2.08;;;;;;;;;;5012597;28;20112;-69
2023/06/26 04:26:06;;;;;;;7.10;2.33;;;;;;;;;;5012892;28;20477;-69
2023/06/26 04:28:32;;;;;;;3.65;2.03;;;;;;;;;;5012247;28;20490;-69
2023/06/26 04:30:58;;;;;;;9.05;2.15;;;;;;;;;;5012971;28;20044;-69
2023/06/26 04:33:25;;;;;;;4.80;1.80;;;;;;;;;;5012153;28;20044;-69
2023/06/26 04:35:50;;;;;;;7.43;1.77;;;;;;;;;;5016469;28;20072;-69
2023/06/26 04:38:16;;;;;;;6.97;2.35;;;;;;;;;;5016497;28;20066;-69
2023/06/26 04:40:41;;;;;;;7.47;2.10;;;;;;;;;;5016462;28;20037;-69
2023/06/26 04:43:06;;;;;;;10.98;1.98;;;;;;;;;;5015859;28;20073;-70
2023/06/26 04:45:32;;;;;;;5.07;1.95;;;;;;;;;;5016585;28;20068;-69
2023/06/26 04:47:57;;;;;;;10.02;2.22;;;;;;;;;;5015503;28;20083;-69
2023/06/26 04:50:23;;;;;;;12.93;2.72;;;;;;;;;;5012046;28;20037;-69
2023/06/26 04:52:48;;;;;;;4.13;2.25;;;;;;;;;;5016117;28;20096;-69
2023/06/26 04:55:13;;;;;;;6.18;1.63;;;;;;;;;;5015186;28;20117;-69
2023/06/26 04:57:38;;;;;;;6.00;1.95;;;;;;;;;;5014431;28;20129;-69
2023/06/26 05:00:09;;;;;;;6.50;1.52;;;;;;;;;;5016043;28;20124;-69
2023/06/26 05:02:35;;;;;;;5.47;1.30;;;;;;;;;;5015979;28;20398;-69
2023/06/26 05:05:01;;;;;;;6.07;1.50;;;;;;;;;;5014886;28;20042;-69
2023/06/26 05:07:26;;;;;;;3.45;1.33;;;;;;;;;;5015921;28;20045;-69
2023/06/26 05:09:51;;;;;;;5.15;1.63;;;;;;;;;;5016167;28;20041;-69
2023/06/26 05:12:17;;;;;;;6.07;1.45;;;;;;;;;;5015728;28;20054;-69
2023/06/26 05:14:42;;;;;;;2.70;1.30;;;;;;;;;;5016015;28;20037;-69
2023/06/26 05:17:07;;;;;;;4.88;1.27;;;;;;;;;;5015834;28;20034;-70
2023/06/26 05:19:32;;;;;;;6.18;1.30;;;;;;;;;;5015642;28;20038;-70
2023/06/26 05:21:59;;;;;;;7.72;1.38;;;;;;;;;;5015984;28;20037;-69
2023/06/26 05:24:25;;;;;;;3.75;1.10;;;;;;;;;;5015330;28;20042;-69
2023/06/26 05:26:51;;;;;;;5.75;1.25;;;;;;;;;;5014672;28;20117;-70
2023/06/26 05:29:16;;;;;;;3.78;1.13;;;;;;;;;;5015282;28;20117;-70
2023/06/26 05:31:42;;;;;;;3.88;1.27;;;;;;;;;;5010682;28;20034;-70
2023/06/26 05:34:07;;;;;;;4.38;1.27;;;;;;;;;;5014203;28;20037;-70
2023/06/26 05:36:34;;;;;;;3.53;1.25;;;;;;;;;;5014566;28;20053;-70
2023/06/26 05:38:59;;;;;;;4.20;1.38;;;;;;;;;;5014110;28;20485;-70
2023/06/26 05:41:25;;;;;;;4.00;1.10;;;;;;;;;;5014197;28;20072;-70
2023/06/26 05:43:50;;;;;;;3.42;1.25;;;;;;;;;;5013310;28;20041;-70
2023/06/26 05:46:16;;;;;;;3.13;1.23;;;;;;;;;;5015469;28;20022;-70
2023/06/26 05:48:41;;;;;;;4.95;1.50;;;;;;;;;;5015217;28;20057;-70
2023/06/26 05:51:07;;;;;;;2.95;1.20;;;;;;;;;;5015203;28;20045;-70
2023/06/26 05:53:33;;;;;;;3.58;1.00;;;;;;;;;;5014611;28;20100;-70
2023/06/26 05:55:58;;;;;;;3.13;1.17;;;;;;;;;;5008098;28;20046;-70
2023/06/26 05:58:27;;;;;;;4.63;1.27;;;;;;;;;;5013665;28;20049;-70
2023/06/26 06:00:52;;;;;;;4.22;1.58;;;;;;;;;;5014546;28;20390;-70
2023/06/26 06:03:18;;;;;;;3.47;1.33;;;;;;;;;;5012302;28;20044;-70
2023/06/26 06:05:43;;;;;;;5.30;1.20;;;;;;;;;;5009652;28;20045;-70
2023/06/26 06:08:09;;;;;;;3.20;1.10;;;;;;;;;;5014680;28;20026;-70
2023/06/26 06:10:34;;;;;;;5.88;1.80;;;;;;;;;;5014584;28;20482;-70
2023/06/26 06:12:59;;;;;;;3.15;1.30;;;;;;;;;;5014234;28;20041;-70
2023/06/26 06:15:25;;;;;;;5.07;1.13;;;;;;;;;;5014424;28;20029;-70
2023/06/26 06:17:50;;;;;;;2.85;1.13;;;;;;;;;;5004616;28;20033;-71
2023/06/26 06:20:17;;;;;;;4.25;1.20;;;;;;;;;;5016080;28;20034;-69
2023/06/26 06:22:42;;;;;;;5.50;1.40;;;;;;;;;;5013598;28;20386;-68
2023/06/26 06:25:08;;;;;;;5.88;1.52;;;;;;;;;;5014697;28;20048;-68
2023/06/26 06:27:33;;;;;;;3.38;1.30;;;;;;;;;;5014405;28;20120;-69
2023/06/26 06:29:58;;;;;;;6.60;1.45;;;;;;;;;;5013441;28;20095;-69
2023/06/26 06:32:24;;;;;;;5.30;1.30;;;;;;;;;;5013431;28;20118;-69
2023/06/26 06:34:49;;;;;;;7.35;1.50;;;;;;;;;;5014360;28;20041;-70
2023/06/26 06:37:14;;;;;;;4.95;1.30;;;;;;;;;;5014591;28;20152;-70
2023/06/26 06:39:40;;;;;;;4.50;1.38;;;;;;;;;;5014317;28;20034;-71
2023/06/26 06:42:05;;;;;;;4.15;1.70;;;;;;;;;;5012759;28;20120;-70
2023/06/26 06:44:31;;;;;;;3.72;1.40;;;;;;;;;;5013848;28;20030;-70
2023/06/26 06:46:56;;;;;;;7.13;1.40;;;;;;;;;;5014323;28;20073;-70
2023/06/26 06:49:21;;;;;;;4.80;1.33;;;;;;;;;;5013318;28;20042;-70
2023/06/26 06:51:47;;;;;;;2.65;1.20;;;;;;;;;;5013428;28;20034;-68
2023/06/26 06:54:12;;;;;;;5.05;1.75;;;;;;;;;;5012996;28;20034;-68
2023/06/26 06:56:37;;;;;;;4.05;1.30;;;;;;;;;;4997624;28;20109;-70
2023/06/26 06:59:03;;;;;;;4.47;1.48;;;;;;;;;;5013250;28;20500;-71
2023/06/26 07:01:28;;;;;;;5.40;1.42;;;;;;;;;;5009710;28;20103;-71
2023/06/26 07:03:53;;;;;;;4.45;1.27;;;;;;;;;;5012023;28;20129;-71
2023/06/26 07:06:19;;;;;;;3.67;1.40;;;;;;;;;;5008157;28;20378;-71
2023/06/26 07:08:44;;;;;;;4.32;1.60;;;;;;;;;;5013181;28;20478;-71
2023/06/26 07:11:09;;;;;;;2.95;1.40;;;;;;;;;;5013000;28;20474;-69
2023/06/26 07:13:35;;;;;;;7.57;1.30;;;;;;;;;;5012708;28;20038;-70
2023/06/26 07:16:00;;;;;;;2.55;1.27;;;;;;;;;;5013015;28;20112;-71
2023/06/26 07:18:25;;;;;;;5.97;1.55;;;;;;;;;;5013797;28;20077;-71
2023/06/26 07:20:51;;;;;;;4.60;1.45;;;;;;;;;;5012191;28;20045;-71
2023/06/26 07:23:16;;;;;;;2.47;1.20;;;;;;;;;;5013655;28;20154;-71
2023/06/26 07:25:41;;;;;;;5.90;1.45;;;;;;;;;;5012148;28;20053;-71
2023/06/26 07:28:11;;;;;;;5.78;1.40;;;;;;;;;;5013365;28;20030;-71
2023/06/26 07:30:36;;;;;;;5.55;1.58;;;;;;;;;;5000806;28;20038;-71
2023/06/26 07:33:01;;;;;;;7.43;1.50;;;;;;;;;;5013500;28;20044;-71
2023/06/26 07:35:27;;;;;;;6.18;1.40;;;;;;;;;;5013371;28;20034;-70
2023/06/26 07:37:53;;;;;;;5.00;1.48;;;;;;;;;;5012099;28;20046;-71
2023/06/26 07:40:18;;;;;;;3.67;1.30;;;;;;;;;;5012573;28;20076;-71
2023/06/26 07:42:43;;;;;;;6.53;1.33;;;;;;;;;;5011456;28;20040;-71
2023/06/26 07:45:11;;;;;;;4.55;1.50;;;;;;;;;;5006165;28;20038;-70
2023/06/26 07:47:37;;;;;;;7.32;1.30;;;;;;;;;;5013103;28;20041;-71
2023/06/26 07:50:03;;;;;;;4.13;1.20;;;;;;;;;;5013453;28;20481;-71
2023/06/26 07:52:30;;;;;;;7.25;1.50;;;;;;;;;;5010666;28;20099;-71
2023/06/26 07:54:55;;;;;;;5.03;1.30;;;;;;;;;;5011898;28;20088;-70
2023/06/26 07:57:21;;;;;;;5.07;1.60;;;;;;;;;;5013292;28;20037;-70
2023/06/26 07:59:46;;;;;;;6.13;1.17;;;;;;;;;;5012480;28;20048;-70
2023/06/26 08:02:11;;;;;;;4.07;1.33;;;;;;;;;;5013040;28;20041;-70
2023/06/26 08:04:37;;;;;;;6.35;1.55;;;;;;;;;;5011475;28;20069;-70
2023/06/26 08:07:03;;;;;;;2.83;1.00;;;;;;;;;;5012046;28;20121;-70
2023/06/26 08:09:29;;;;;;;4.47;1.15;;;;;;;;;;5015748;28;20034;-70
2023/06/26 08:11:55;;;;;;;4.20;1.40;;;;;;;;;;5001439;28;20025;-70
2023/06/26 08:14:20;;;;;;;6.50;1.42;;;;;;;;;;5009837;28;20037;-71
2023/06/26 08:16:46;;;;;;;4.25;1.00;;;;;;;;;;5011203;28;20026;-71
2023/06/26 08:19:12;;;;;;;5.85;1.40;;;;;;;;;;5001581;28;20458;-70
2023/06/26 08:21:38;;;;;;;4.35;1.10;;;;;;;;;;5013666;28;20046;-70
2023/06/26 08:24:03;;;;;;;4.50;1.27;;;;;;;;;;5013160;28;20042;-71
2023/06/26 08:26:29;;;;;;;6.15;1.52;;;;;;;;;;5011703;28;20065;-71
2023/06/26 08:28:54;;;;;;;4.47;1.25;;;;;;;;;;5013316;28;20041;-71
2023/06/26 08:31:20;;;;;;;3.92;1.20;;;;;;;;;;5012796;28;20095;-70
2023/06/26 08:33:46;;;;;;;4.22;1.20;;;;;;;;;;5013972;28;20034;-71
2023/06/26 08:36:11;;;;;;;4.80;1.20;;;;;;;;;;5010163;28;20495;-70
2023/06/26 08:38:38;;;;;;;3.55;1.10;;;;;;;;;;5012805;28;20164;-70
2023/06/26 08:41:03;;;;;;;4.95;1.00;;;;;;;;;;5012641;28;20500;-70
2023/06/26 08:43:28;;;;;;;5.28;1.25;;;;;;;;;;5012307;28;20037;-70
2023/06/26 08:45:54;;;;;;;3.35;1.00;;;;;;;;;;5010591;28;20030;-70
2023/06/26 08:48:20;;;;;;;4.45;1.10;;;;;;;;;;5000137;28;20466;-70
2023/06/26 08:50:48;;;;;;;3.45;1.00;;;;;;;;;;5006213;28;20538;-70
2023/06/26 08:53:17;;;;;;;5.43;1.40;;;;;;;;;;5012024;28;20045;-70
2023/06/26 08:55:43;;;;;;;4.55;0.95;;;;;;;;;;5011669;28;20398;-70
2023/06/26 08:58:10;;;;;;;4.68;1.20;;;;;;;;;;5010347;28;20045;-70
2023/06/26 09:00:35;;;;;;;5.00;1.17;;;;;;;;;;5012148;28;20072;-70
2023/06/26 09:03:03;;;;;;;5.72;1.17;;;;;;;;;;5004311;28;20097;-70
2023/06/26 09:05:29;;;;;;;6.70;1.10;;;;;;;;;;5010823;28;20049;-70
2023/06/26 09:07:57;;;;;;;3.50;0.80;;;;;;;;;;5004679;28;20042;-70
2023/06/26 09:10:22;;;;;;;3.45;1.10;;;;;;;;;;5010839;28;20030;-70
2023/06/26 09:12:48;;;;;;;3.55;1.00;;;;;;;;;;5007191;28;20565;-70
2023/06/26 09:15:19;;;;;;;4.30;1.08;;;;;;;;;;5009379;28;20034;-70
2023/06/26 09:17:45;;;;;;;4.70;1.15;;;;;;;;;;5005744;28;20040;-70
2023/06/26 09:20:10;;;;;;;2.75;0.90;;;;;;;;;;5011346;28;20042;-70
2023/06/26 09:22:38;;;;;;;2.95;1.13;;;;;;;;;;4998729;28;20045;-70
2023/06/26 09:25:04;;;;;;;2.90;1.10;;;;;;;;;;5011606;28;20034;-70
2023/06/26 09:27:30;;;;;;;4.13;1.40;;;;;;;;;;5002932;28;20029;-70
2023/06/26 09:29:57;;;;;;;3.35;0.90;;;;;;;;;;5010751;28;20059;-70
2023/06/26 09:32:24;;;;;;;4.68;1.42;;;;;;;;;;4999247;28;20037;-70
2023/06/26 09:34:52;;;;;;;6.97;1.45;;;;;;;;;;5004688;28;20029;-70
2023/06/26 09:37:18;;;;;;;3.08;1.02;;;;;;;;;;5011369;28;20049;-70
2023/06/26 09:39:44;;;;;;;2.50;0.90;;;;;;;;;;5011547;28;20097;-70
2023/06/26 09:42:09;;;;;;;2.85;0.90;;;;;;;;;;5010416;28;20045;-70
2023/06/26 09:44:35;;;;;;;2.53;0.93;;;;;;;;;;5010124;28;20041;-69
2023/06/26 09:47:02;;;;;;;6.53;1.20;;;;;;;;;;5011356;28;20444;-70
2023/06/26 09:49:28;;;;;;;3.72;1.08;;;;;;;;;;5011511;28;20505;-70
2023/06/26 09:51:53;;;;;;;3.72;1.40;;;;;;;;;;5010092;28;20038;-70
2023/06/26 09:54:21;;;;;;;6.32;1.15;;;;;;;;;;5011571;28;20029;-70
2023/06/26 09:56:47;;;;;;;2.60;1.13;;;;;;;;;;5010957;28;20371;-70
2023/06/26 09:59:13;;;;;;;4.00;1.20;;;;;;;;;;5011454;28;20103;-70
2023/06/26 10:01:45;;;;;;;2.92;0.98;;;;;;;;;;5009732;28;20030;-69
2023/06/26 10:04:10;;;;;;;3.53;0.80;;;;;;;;;;5011673;28;20073;-70
2023/06/26 10:06:41;;;;;;;4.88;1.27;;;;;;;;;;5011740;28;20092;-70
2023/06/26 10:09:08;;;;;;;3.45;1.10;;;;;;;;;;4993912;28;20394;-70
2023/06/26 10:12:02;;;;;;;2.83;0.90;;;;;;;;;;5010221;28;20034;-70
2023/06/26 10:14:29;;;;;;;2.08;0.85;;;;;;;;;;5001298;28;20587;-70
2023/06/26 10:16:58;;;;;;;4.90;1.20;;;;;;;;;;5009979;28;20136;-70
2023/06/26 10:19:26;;;;;;;6.13;1.13;;;;;;;;;;4993792;28;20448;-70
2023/06/26 10:21:54;;;;;;;2.67;0.95;;;;;;;;;;5010930;28;20508;-70
2023/06/26 10:24:21;;;;;;;9.25;1.35;;;;;;;;;;5011987;28;20088;-70
2023/06/26 10:26:50;;;;;;;5.20;1.10;;;;;;;;;;5009874;28;20049;-70
2023/06/26 10:29:16;;;;;;;3.58;1.08;;;;;;;;;;5003576;28;20896;-70
2023/06/26 10:31:45;;;;;;;5.00;1.40;;;;;;;;;;5006852;28;20061;-70
2023/06/26 10:34:11;;;;;;;6.75;1.30;;;;;;;;;;5009694;28;20034;-69
2023/06/26 10:36:36;;;;;;;4.28;1.02;;;;;;;;;;5010244;28;20125;-70
2023/06/26 10:39:05;;;;;;;5.45;1.08;;;;;;;;;;5011164;28;20044;-69
2023/06/26 10:41:39;;;;;;;5.55;1.35;;;;;;;;;;5010626;28;20065;-70
2023/06/26 10:44:09;;;;;;;5.03;1.10;;;;;;;;;;5011522;28;20048;-70
2023/06/26 10:46:52;;;;;;;6.30;1.38;;;;;;;;;;5011332;28;20037;-70
2023/06/26 10:49:17;;;;;;;;;;;;;;;;;;5010982;28;20076;-70
2023/06/26 10:51:50;;;;;;;4.55;1.00;;;;;;;;;;5009165;28;20409;-70
2023/06/26 10:54:19;;;;;;;4.07;0.98;;;;;;;;;;5032817;28;20104;-69
2023/06/26 10:56:49;;;;;;;2.83;1.02;;;;;;;;;;5009676;28;20038;-70
2023/06/26 10:59:17;;;;;;;2.90;1.00;;;;;;;;;;5009678;28;20038;-70
2023/06/26 11:01:43;;;;;;;2.92;0.75;;;;;;;;;;4998719;28;20490;-70
2023/06/26 11:04:10;;;;;;;3.17;1.10;;;;;;;;;;5006908;28;20128;-70
2023/06/26 11:06:38;;;;;;;2.00;1.00;;;;;;;;;;5005374;28;20033;-70
2023/06/26 11:09:04;;;;;;;2.78;0.73;;;;;;;;;;5008441;28;20030;-69
2023/06/26 11:11:51;;;;;;;5.35;1.17;;;;;;;;;;5008200;28;20108;-70
2023/06/26 11:14:30;;;;;;;6.55;1.00;;;;;;;;;;5001683;28;20113;-69
2023/06/26 11:16:57;;;;;;;2.97;0.80;;;;;;;;;;5009518;28;20124;-70
2023/06/26 11:19:22;;;;;;;3.40;0.88;;;;;;;;;;5008418;28;20120;-69
2023/06/26 11:21:47;;;;;;;2.10;0.90;;;;;;;;;;5008671;28;20125;-70
2023/06/26 11:24:13;;;;;;;4.05;0.90;;;;;;;;;;5006926;28;20037;-70
2023/06/26 11:26:39;;;;;;;2.13;0.88;;;;;;;;;;5009318;28;20048;-70
2023/06/26 11:29:05;;;;;;;4.03;1.15;;;;;;;;;;5008691;28;20024;-70
2023/06/26 11:31:32;;;;;;;3.10;0.98;;;;;;;;;;5009655;28;20049;-69
2023/06/26 11:33:59;;;;;;;3.05;0.80;;;;;;;;;;5001366;28;20065;-70
2023/06/26 11:36:28;;;;;;;4.05;0.98;;;;;;;;;;5008911;28;20096;-69
2023/06/26 11:38:58;;;;;;;1.65;0.68;;;;;;;;;;5006274;28;20389;-70
2023/06/26 11:41:27;;;;;;;2.10;0.88;;;;;;;;;;5007800;28;20041;-70
2023/06/26 11:43:53;;;;;;;2.83;1.00;;;;;;;;;;5008116;28;20563;-69
2023/06/26 11:46:22;;;;;;;2.70;0.88;;;;;;;;;;5000053;28;20042;-70
2023/06/26 11:48:48;;;;;;;4.32;0.95;;;;;;;;;;5007593;28;20040;-69
2023/06/26 11:51:17;;;;;;;3.00;1.20;;;;;;;;;;5009963;28;20120;-70
2023/06/26 11:53:43;;;;;;;2.30;0.90;;;;;;;;;;5006241;28;20042;-70
2023/06/26 11:56:10;;;;;;;3.75;1.20;;;;;;;;;;5005324;28;20396;-70
2023/06/26 11:58:35;;;;;;;3.70;0.80;;;;;;;;;;5008245;28;20049;-69
2023/06/26 12:01:01;;;;;;;3.67;1.00;;;;;;;;;;5008608;28;20457;-70
2023/06/26 12:03:26;;;;;;;4.88;0.93;;;;;;;;;;5008313;28;20031;-69
2023/06/26 12:05:52;;;;;;;2.85;0.80;;;;;;;;;;5006206;28;20536;-70
2023/06/26 12:08:18;;;;;;;4.70;1.00;;;;;;;;;;5007534;28;20034;-70
2023/06/26 12:10:43;;;;;;;3.60;0.90;;;;;;;;;;5006556;28;20030;-69
2023/06/26 12:13:08;;;;;;;3.80;0.75;;;;;;;;;;5006786;28;20037;-69
2023/06/26 12:15:33;;;;;;;5.63;0.80;;;;;;;;;;5005620;28;20493;-69
2023/06/26 12:17:59;;;;;;;4.00;0.93;;;;;;;;;;5005282;28;20385;-70
2023/06/26 12:20:25;;;;;;;2.83;1.10;;;;;;;;;;5006373;28;20042;-69
2023/06/26 12:22:51;;;;;;;3.20;1.00;;;;;;;;;;5004924;28;20049;-69
2023/06/26 12:25:24;;;;;;;3.75;0.90;;;;;;;;;;4999718;28;20031;-70
2023/06/26 12:27:49;;;;;;;4.13;1.00;;;;;;;;;;4999825;28;20478;-70
2023/06/26 12:30:15;;;;;;;2.85;0.80;;;;;;;;;;5000109;28;20041;-70
2023/06/26 12:32:44;;;;;;;6.97;0.98;;;;;;;;;;5008334;28;20030;-69
2023/06/26 12:35:10;;;;;;;3.75;0.93;;;;;;;;;;5009909;28;20041;-70
2023/06/26 12:37:43;;;;;;;4.40;0.98;;;;;;;;;;5007344;28;20042;-70
2023/06/26 12:40:21;;;;;;;1.77;0.73;;;;;;;;;;5006393;28;20033;-70
2023/06/26 12:42:47;;;;;;;2.67;0.88;;;;;;;;;;5008932;28;20038;-70
2023/06/26 12:45:13;;;;;;;4.07;1.05;;;;;;;;;;4990427;28;20038;-70
2023/06/26 12:47:41;;;;;;;3.95;1.00;;;;;;;;;;5008012;28;20103;-70
2023/06/26 12:50:07;;;;;;;2.72;1.00;;;;;;;;;;5009110;28;20432;-69
2023/06/26 12:52:32;;;;;;;5.20;1.10;;;;;;;;;;5006990;28;20042;-69
2023/06/26 12:54:57;;;;;;;3.05;0.90;;;;;;;;;;5008689;28;20041;-70
2023/06/26 12:57:23;;;;;;;3.10;0.93;;;;;;;;;;5012973;28;20040;-69
2023/06/26 12:59:49;;;;;;;3.20;1.13;;;;;;;;;;5012200;28;20030;-69
2023/06/26 13:02:14;;;;;;;4.05;1.02;;;;;;;;;;5009837;28;20034;-69
2023/06/26 13:04:40;;;;;;;5.38;1.25;;;;;;;;;;5002930;28;20038;-69
2023/06/26 13:07:06;;;;;;;6.60;1.00;;;;;;;;;;5009358;28;20034;-69
2023/06/26 13:09:33;;;;;;;2.53;0.95;;;;;;;;;;5011537;28;20022;-69
2023/06/26 13:11:58;;;;;;;7.30;1.20;;;;;;;;;;5011632;28;20029;-70
2023/06/26 13:14:24;;;;;;;4.28;1.10;;;;;;;;;;5010653;28;20038;-69
2023/06/26 13:16:49;;;;;;;10.48;1.40;;;;;;;;;;5012620;28;20037;-70
2023/06/26 13:19:14;;;;;;;5.32;1.20;;;;;;;;;;5011696;28;20045;-69
2023/06/26 13:21:40;;;;;;;1.92;0.80;;;;;;;;;;5011013;28;20033;-70
2023/06/26 13:24:05;;;;;;;2.00;0.80;;;;;;;;;;5011501;28;20060;-69
2023/06/26 13:26:31;;;;;;;2.67;1.08;;;;;;;;;;5012099;28;20149;-69
2023/06/26 13:28:57;;;;;;;2.65;1.00;;;;;;;;;;5003397;28;20022;-70
2023/06/26 13:31:22;;;;;;;3.50;0.90;;;;;;;;;;5010157;28;20471;-70
2023/06/26 13:33:53;;;;;;;2.67;1.20;;;;;;;;;;5011085;28;20042;-69
2023/06/26 13:36:19;;;;;;;5.13;1.20;;;;;;;;;;5011045;28;20386;-70
2023/06/26 13:38:45;;;;;;;3.33;1.30;;;;;;;;;;5011173;28;20030;-69
2023/06/26 13:41:10;;;;;;;5.20;1.15;;;;;;;;;;5008553;28;20034;-69
2023/06/26 13:43:36;;;;;;;3.17;1.10;;;;;;;;;;5009052;28;20106;-69
2023/06/26 13:46:02;;;;;;;3.60;0.90;;;;;;;;;;5009406;28;20452;-69
2023/06/26 13:48:28;;;;;;;2.83;1.10;;;;;;;;;;5010741;28;20038;-69
2023/06/26 13:50:53;;;;;;;3.03;0.88;;;;;;;;;;5010101;28;20375;-70
2023/06/26 13:53:19;;;;;;;3.75;1.30;;;;;;;;;;5011770;28;20061;-69
2023/06/26 13:55:44;;;;;;;2.38;0.80;;;;;;;;;;5006114;28;20470;-69
2023/06/26 13:58:11;;;;;;;2.72;1.17;;;;;;;;;;5005272;28;20494;-70
2023/06/26 14:00:37;;;;;;;2.60;0.90;;;;;;;;;;5008806;28;20074;-69
2023/06/26 14:03:03;;;;;;;2.63;0.80;;;;;;;;;;5005372;28;20447;-70
2023/06/26 14:05:29;;;;;;;3.33;1.02;;;;;;;;;;5000014;28;20116;-70
2023/06/26 14:07:55;;;;;;;4.22;1.10;;;;;;;;;;5009601;28;20032;-70
2023/06/26 14:10:21;;;;;;;5.20;1.35;;;;;;;;;;5009885;28;20038;-70
2023/06/26 14:12:46;;;;;;;4.28;1.08;;;;;;;;;;5009466;28;20758;-69
2023/06/26 14:15:11;;;;;;;4.97;1.15;;;;;;;;;;5010948;28;20034;-70
2023/06/26 14:17:39;;;;;;;5.70;1.02;;;;;;;;;;5008682;28;20401;-70
2023/06/26 14:20:08;;;;;;;3.97;1.10;;;;;;;;;;5009865;28;20041;-69
2023/06/26 14:22:34;;;;;;;5.20;1.10;;;;;;;;;;5009968;28;20033;-70
2023/06/26 14:24:59;;;;;;;3.90;1.10;;;;;;;;;;5008149;28;20042;-69
2023/06/26 14:27:24;;;;;;;2.08;0.80;;;;;;;;;;5008328;28;20079;-69
2023/06/26 14:29:50;;;;;;;2.58;1.17;;;;;;;;;;5010944;28;20056;-70
2023/06/26 14:32:15;;;;;;;2.42;0.90;;;;;;;;;;5009990;28;20952;-70
2023/06/26 14:34:40;;;;;;;4.78;1.17;;;;;;;;;;5010972;28;20883;-69
2023/06/26 14:37:06;;;;;;;1.92;0.82;;;;;;;;;;5010448;28;20029;-69
2023/06/26 14:39:31;;;;;;;1.77;0.80;;;;;;;;;;5010394;28;20045;-69